Time;durP1;ratioP1;P1;durP2;ratioP2;P2;SDS_P1;SDS_P2;PMS_P1;PMS_P2;Temp;Humidity;BMP_temperature;BMP_pressure;BME280_temperature;BME280_humidity;BME280_pressure;Samples;Min_cycle;Max_cycle;Signal;HPM_P1;HPM_P2
2022/03/06 00:02:10;;;;;;;29.48;19.90;;;0.90;99.90;;;;;;4978576;28;20081;-83
2022/03/06 00:04:36;;;;;;;25.30;19.48;;;-0.10;99.90;;;;;;4994940;28;20497;-83
2022/03/06 00:07:02;;;;;;;27.00;19.05;;;0.70;99.90;;;;;;4977892;28;20508;-83
2022/03/06 00:09:27;;;;;;;28.33;19.48;;;-0.10;99.90;;;;;;4994757;28;20042;-83
2022/03/06 00:11:54;;;;;;;23.20;18.58;;;1.10;99.90;;;;;;4978511;28;20053;-83
2022/03/06 00:14:20;;;;;;;25.33;19.23;;;-0.20;99.90;;;;;;4994548;28;20053;-83
2022/03/06 00:16:46;;;;;;;28.70;19.50;;;-0.20;99.90;;;;;;5013781;28;20121;-83
2022/03/06 00:19:13;;;;;;;26.52;19.85;;;-0.20;99.90;;;;;;4981046;28;20045;-83
2022/03/06 00:21:39;;;;;;;26.45;19.40;;;0.40;99.90;;;;;;4996645;28;20050;-83
2022/03/06 00:24:05;;;;;;;27.63;19.88;;;-0.20;99.90;;;;;;4997780;28;20558;-83
2022/03/06 00:26:31;;;;;;;24.50;18.60;;;-0.20;99.90;;;;;;5013790;28;20080;-83
2022/03/06 00:28:57;;;;;;;25.98;18.92;;;-0.20;99.90;;;;;;5014081;28;20034;-83
2022/03/06 00:31:23;;;;;;;26.38;19.48;;;-0.20;99.90;;;;;;4981269;28;20041;-83
2022/03/06 00:33:50;;;;;;;28.02;19.42;;;0.80;99.90;;;;;;4997855;28;20488;-83
2022/03/06 00:36:16;;;;;;;27.45;19.10;;;-0.30;99.90;;;;;;4997096;28;20052;-83
2022/03/06 00:38:42;;;;;;;25.65;19.80;;;-0.30;99.90;;;;;;4997125;28;20125;-83
2022/03/06 00:41:08;;;;;;;29.85;20.13;;;-0.30;99.90;;;;;;4981373;28;20149;-83
2022/03/06 00:43:34;;;;;;;27.90;19.38;;;-0.30;99.90;;;;;;4980947;28;20132;-84
2022/03/06 00:46:00;;;;;;;26.08;19.42;;;-0.30;99.90;;;;;;4997093;28;20029;-84
2022/03/06 00:48:25;;;;;;;30.00;20.45;;;-0.30;99.90;;;;;;4980931;28;20034;-84
2022/03/06 00:50:51;;;;;;;28.80;20.63;;;-0.30;99.90;;;;;;4964828;28;20034;-84
2022/03/06 00:53:17;;;;;;;25.35;18.75;;;-0.30;99.90;;;;;;4979845;28;20409;-84
2022/03/06 00:55:43;;;;;;;23.13;18.10;;;0.70;99.90;;;;;;4981182;28;20136;-84
2022/03/06 00:58:09;;;;;;;26.30;18.70;;;-0.30;99.90;;;;;;4996945;28;20042;-84
2022/03/06 01:00:43;;;;;;;25.25;18.92;;;-0.30;99.90;;;;;;4980884;28;20046;-84
2022/03/06 01:03:15;;;;;;;28.08;18.10;;;0.40;99.90;;;;;;4996789;28;20113;-84
2022/03/06 01:05:41;;;;;;;25.40;18.97;;;-0.20;99.90;;;;;;5013217;28;20504;-84
2022/03/06 01:08:08;;;;;;;24.98;18.10;;;0.50;99.90;;;;;;4980135;28;20441;-84
2022/03/06 01:10:35;;;;;;;23.98;17.90;;;0.20;99.90;;;;;;4980658;28;20038;-84
2022/03/06 01:13:01;;;;;;;26.92;18.45;;;-0.20;99.90;;;;;;4980759;28;20575;-84
2022/03/06 01:15:27;;;;;;;23.33;18.40;;;-0.20;99.90;;;;;;4980509;28;20075;-84
2022/03/06 01:17:53;;;;;;;24.95;18.80;;;-0.20;99.90;;;;;;4980414;28;20045;-84
2022/03/06 01:20:19;;;;;;;25.85;18.90;;;-0.20;99.90;;;;;;4996785;28;20553;-84
2022/03/06 01:22:47;;;;;;;27.05;18.55;;;-0.20;99.90;;;;;;5012052;28;20049;-84
2022/03/06 01:25:13;;;;;;;25.23;18.40;;;-0.30;99.90;;;;;;4996469;28;20046;-84
2022/03/06 01:27:39;;;;;;;26.38;18.40;;;-0.30;99.90;;;;;;4996665;28;20508;-84
2022/03/06 01:30:08;;;;;;;24.55;18.27;;;-0.30;99.90;;;;;;4979503;28;20038;-84
2022/03/06 01:32:34;;;;;;;22.98;17.77;;;-0.30;99.90;;;;;;4980238;28;20038;-84
2022/03/06 01:35:00;;;;;;;24.23;18.63;;;-0.30;99.90;;;;;;4996326;28;20048;-84
2022/03/06 01:37:26;;;;;;;26.70;18.45;;;0.70;99.90;;;;;;4995544;28;20501;-84
2022/03/06 01:39:52;;;;;;;24.83;17.55;;;-0.30;99.90;;;;;;4980060;28;20041;-84
2022/03/06 01:42:18;;;;;;;27.05;18.92;;;0.20;99.90;;;;;;4996245;28;20048;-84
2022/03/06 01:44:50;;;;;;;24.52;18.27;;;-0.30;99.90;;;;;;4996212;28;20042;-84
2022/03/06 01:47:37;;;;;;;24.50;17.53;;;0.80;99.90;;;;;;4980026;28;20428;-84
2022/03/06 01:50:05;;;;;;;24.58;18.17;;;-0.40;99.90;;;;;;4995941;28;20030;-84
2022/03/06 01:52:31;;;;;;;23.67;17.80;;;-0.50;99.90;;;;;;4995246;28;20037;-84
2022/03/06 01:54:56;;;;;;;23.58;18.25;;;-0.40;99.90;;;;;;5012281;28;20196;-84
2022/03/06 01:57:23;;;;;;;24.10;17.88;;;-0.50;99.90;;;;;;4979953;28;20449;-84
2022/03/06 01:59:49;;;;;;;26.98;18.73;;;0.10;99.90;;;;;;4980037;28;20485;-84
2022/03/06 02:02:15;;;;;;;25.38;18.48;;;-0.60;99.90;;;;;;4996009;28;20044;-84
2022/03/06 02:04:40;;;;;;;24.58;18.60;;;-0.60;99.90;;;;;;4963882;28;20046;-84
2022/03/06 02:07:06;;;;;;;26.42;19.30;;;-0.60;99.90;;;;;;4978757;28;20177;-84
2022/03/06 02:09:32;;;;;;;24.50;17.80;;;-0.70;99.90;;;;;;4979643;28;20129;-84
2022/03/06 02:14:42;;;;;;;27.83;19.10;;;-0.70;99.90;;;;;;4998479;28;20143;-84
2022/03/06 02:17:08;;;;;;;25.92;19.33;;;-0.70;99.90;;;;;;4979497;28;20081;-84
2022/03/06 02:20:00;;;;;;;26.65;18.98;;;0.10;99.90;;;;;;4979521;28;20045;-84
2022/03/06 02:22:28;;;;;;;22.35;15.25;;;-0.70;99.90;;;;;;4995067;28;20066;-84
2022/03/06 02:24:55;;;;;;;27.08;18.67;;;-0.40;99.90;;;;;;5012202;28;20042;-84
2022/03/06 02:27:21;;;;;;;25.38;18.50;;;-0.70;99.90;;;;;;4995804;28;20038;-84
2022/03/06 02:29:48;;;;;;;29.67;19.10;;;-0.70;99.90;;;;;;4961036;28;20034;-84
2022/03/06 02:32:16;;;;;;;26.15;18.25;;;-0.70;99.90;;;;;;4992290;28;20038;-84
2022/03/06 02:34:44;;;;;;;25.25;18.73;;;-0.70;99.90;;;;;;4992640;28;20047;-84
2022/03/06 02:37:11;;;;;;;23.80;18.05;;;-0.70;99.90;;;;;;4991421;28;20042;-84
2022/03/06 02:39:37;;;;;;;27.40;18.48;;;-0.70;99.90;;;;;;5008735;28;20069;-84
2022/03/06 02:42:04;;;;;;;26.08;19.05;;;-0.70;99.90;;;;;;4961385;28;20042;-84
2022/03/06 02:44:30;;;;;;;25.98;18.73;;;-0.70;99.90;;;;;;4996467;28;20081;-84
2022/03/06 02:46:56;;;;;;;26.95;18.95;;;-0.70;99.90;;;;;;4980160;28;20128;-84
2022/03/06 02:49:23;;;;;;;26.40;18.63;;;-0.60;99.90;;;;;;4996248;28;20034;-84
2022/03/06 02:51:49;;;;;;;24.58;18.25;;;-0.70;99.90;;;;;;4995364;28;20034;-84
2022/03/06 02:54:20;;;;;;;25.17;18.50;;;-0.80;99.90;;;;;;4995980;28;20054;-84
2022/03/06 02:56:50;;;;;;;24.40;17.13;;;-0.70;99.90;;;;;;4995997;28;20136;-84
2022/03/06 02:59:16;;;;;;;27.75;18.50;;;-0.80;99.90;;;;;;4996068;28;20481;-84
2022/03/06 03:01:42;;;;;;;23.80;17.67;;;-0.80;99.90;;;;;;4995809;28;20038;-84
2022/03/06 03:04:11;;;;;;;26.67;18.65;;;-0.10;99.90;;;;;;4979662;28;20042;-84
2022/03/06 03:06:38;;;;;;;26.70;17.73;;;-0.70;99.90;;;;;;4978637;28;20077;-84
2022/03/06 03:09:05;;;;;;;24.52;17.48;;;-0.70;99.90;;;;;;4996026;28;20046;-84
2022/03/06 03:11:32;;;;;;;24.73;17.10;;;-0.60;99.90;;;;;;4995485;28;20046;-84
2022/03/06 03:13:58;;;;;;;24.85;16.55;;;-0.60;99.90;;;;;;4995700;28;20049;-84
2022/03/06 03:16:24;;;;;;;25.58;17.17;;;-0.40;99.90;;;;;;4979270;28;20125;-84
2022/03/06 03:18:50;;;;;;;23.02;15.70;;;-0.50;99.90;;;;;;4995946;28;20494;-84
2022/03/06 03:21:15;;;;;;;24.42;16.50;;;-0.50;99.90;;;;;;4995153;28;20042;-84
2022/03/06 03:23:41;;;;;;;24.00;16.38;;;-0.40;99.90;;;;;;4979326;28;20061;-84
2022/03/06 03:26:07;;;;;;;21.33;15.90;;;0.50;99.90;;;;;;4979239;28;20049;-84
2022/03/06 03:28:32;;;;;;;22.75;15.32;;;-0.40;99.90;;;;;;4995364;28;20042;-84
2022/03/06 03:30:58;;;;;;;22.77;15.00;;;0.30;99.90;;;;;;4963061;28;20505;-84
2022/03/06 03:33:24;;;;;;;23.05;15.43;;;0.50;99.90;;;;;;4979144;28;20060;-84
2022/03/06 03:35:49;;;;;;;20.63;14.98;;;0.20;99.90;;;;;;4995681;28;20046;-84
2022/03/06 03:38:15;;;;;;;23.13;15.45;;;-0.40;99.90;;;;;;4962144;28;20125;-84
2022/03/06 03:40:41;;;;;;;21.55;14.43;;;-0.40;99.90;;;;;;4979050;28;20052;-84
2022/03/06 03:43:07;;;;;;;20.08;14.18;;;-0.40;99.90;;;;;;4986370;28;20050;-84
2022/03/06 03:45:32;;;;;;;20.00;14.02;;;-0.30;99.90;;;;;;4947035;28;20042;-84
2022/03/06 03:47:58;;;;;;;21.33;13.77;;;-0.40;99.90;;;;;;4978781;28;20074;-84
2022/03/06 03:50:24;;;;;;;19.90;13.23;;;-0.30;99.90;;;;;;4964763;28;20073;-84
2022/03/06 03:52:49;;;;;;;19.95;12.70;;;-0.30;99.90;;;;;;4981023;28;20030;-84
2022/03/06 03:55:15;;;;;;;20.42;13.82;;;-0.40;99.90;;;;;;4965565;28;20052;-84
2022/03/06 03:57:41;;;;;;;18.27;13.25;;;-0.40;99.90;;;;;;4998131;28;20444;-84
2022/03/06 04:00:08;;;;;;;18.63;13.63;;;-0.40;99.90;;;;;;4982271;28;20076;-84
2022/03/06 04:02:34;;;;;;;20.23;13.32;;;-0.30;99.90;;;;;;4997997;28;20038;-84
2022/03/06 04:05:00;;;;;;;21.23;13.10;;;-0.30;99.90;;;;;;4981978;28;20453;-84
2022/03/06 04:07:26;;;;;;;17.13;12.82;;;0.40;99.90;;;;;;4980964;28;20157;-84
2022/03/06 04:09:51;;;;;;;17.30;12.80;;;-0.30;99.90;;;;;;4997955;28;20065;-84
2022/03/06 04:12:17;;;;;;;18.25;12.75;;;-0.30;99.90;;;;;;4965504;28;20455;-84
2022/03/06 04:14:43;;;;;;;19.15;13.05;;;-0.30;99.90;;;;;;4965583;28;20077;-84
2022/03/06 04:17:09;;;;;;;17.55;12.70;;;-0.10;99.90;;;;;;4997651;28;20077;-84
2022/03/06 04:19:35;;;;;;;19.15;13.40;;;0.50;99.90;;;;;;4981691;28;20081;-84
2022/03/06 04:22:00;;;;;;;19.80;13.07;;;-0.30;99.90;;;;;;4980624;28;20037;-84
2022/03/06 04:24:26;;;;;;;16.90;12.07;;;-0.30;99.90;;;;;;4965408;28;20045;-84
2022/03/06 04:26:52;;;;;;;20.00;12.38;;;0.40;99.90;;;;;;4965327;28;20034;-84
2022/03/06 04:29:18;;;;;;;17.55;11.80;;;-0.30;99.90;;;;;;4997499;28;20037;-84
2022/03/06 04:31:44;;;;;;;18.92;12.40;;;-0.40;99.90;;;;;;4997707;28;20551;-84
2022/03/06 04:34:10;;;;;;;18.15;12.30;;;-0.40;99.90;;;;;;4965567;28;20038;-84
2022/03/06 04:36:36;;;;;;;17.88;11.95;;;-0.20;99.90;;;;;;4964416;28;20060;-84
2022/03/06 04:39:03;;;;;;;18.23;11.98;;;-0.40;99.90;;;;;;4981331;28;20045;-84
2022/03/06 04:41:29;;;;;;;17.45;12.32;;;0.40;99.90;;;;;;4981124;28;20041;-83
2022/03/06 04:43:55;;;;;;;17.17;11.93;;;-0.40;99.90;;;;;;4981158;28;20600;-83
2022/03/06 04:46:20;;;;;;;17.58;12.27;;;-0.40;99.90;;;;;;4980903;28;20038;-83
2022/03/06 04:48:46;;;;;;;17.23;12.02;;;-0.40;99.90;;;;;;4997356;28;20095;-83
2022/03/06 04:51:12;;;;;;;16.98;11.93;;;-0.50;99.90;;;;;;4964909;28;20489;-83
2022/03/06 04:53:38;;;;;;;18.48;12.32;;;-0.50;99.90;;;;;;4996169;28;20046;-83
2022/03/06 04:56:04;;;;;;;17.23;12.02;;;-0.50;99.90;;;;;;4980925;28;20560;-83
2022/03/06 04:58:30;;;;;;;15.07;11.13;;;-0.50;99.90;;;;;;4996993;28;20050;-83
2022/03/06 05:00:56;;;;;;;17.08;11.20;;;-0.40;99.90;;;;;;4980803;28;20513;-83
2022/03/06 05:03:22;;;;;;;15.25;11.18;;;-0.40;99.90;;;;;;5013297;28;20464;-83
2022/03/06 05:05:49;;;;;;;16.73;11.18;;;0.20;99.90;;;;;;4996667;28;20057;-83
2022/03/06 05:08:15;;;;;;;17.92;10.65;;;-0.40;99.90;;;;;;4995950;28;20100;-83
2022/03/06 05:10:41;;;;;;;16.70;10.93;;;-0.50;99.90;;;;;;4996859;28;20494;-83
2022/03/06 05:13:07;;;;;;;16.75;11.10;;;-0.40;99.90;;;;;;4980421;28;20049;-83
2022/03/06 05:15:33;;;;;;;15.77;10.73;;;0.30;99.90;;;;;;4996831;28;20060;-83
2022/03/06 05:18:00;;;;;;;17.83;10.40;;;-0.40;99.90;;;;;;4986689;28;20042;-83
2022/03/06 05:20:27;;;;;;;15.98;10.50;;;-0.40;99.90;;;;;;4961513;28;20042;-83
2022/03/06 05:22:53;;;;;;;16.17;10.10;;;-0.40;99.90;;;;;;4976621;28;20050;-83
2022/03/06 05:25:19;;;;;;;15.35;10.30;;;-0.40;99.90;;;;;;4976955;28;20049;-84
2022/03/06 05:27:45;;;;;;;14.00;9.90;;;-0.40;99.90;;;;;;4945246;28;20496;-84
2022/03/06 05:30:11;;;;;;;15.65;9.80;;;0.20;99.90;;;;;;4945051;28;20069;-84
2022/03/06 05:32:37;;;;;;;14.18;9.95;;;-0.40;99.90;;;;;;4945325;28;20038;-84
2022/03/06 05:35:04;;;;;;;38.17;26.95;;;-0.50;99.90;;;;;;4977219;28;20054;-84
2022/03/06 05:37:30;;;;;;;22.30;17.20;;;-0.50;99.90;;;;;;4976338;28;20125;-84
2022/03/06 05:39:56;;;;;;;29.27;19.75;;;-0.50;99.90;;;;;;4977087;28;20489;-84
2022/03/06 05:42:22;;;;;;;68.38;43.85;;;-0.50;99.90;;;;;;4960676;28;20039;-84
2022/03/06 05:44:47;;;;;;;29.20;21.08;;;-0.50;99.90;;;;;;4944968;28;20569;-84
2022/03/06 05:47:13;;;;;;;18.52;13.65;;;-0.50;99.90;;;;;;4960560;28;20044;-84
2022/03/06 05:49:39;;;;;;;29.60;25.27;;;-0.50;99.90;;;;;;4972895;28;20123;-84
2022/03/06 05:52:05;;;;;;;26.70;21.73;;;-0.50;99.90;;;;;;4979022;28;20034;-84
2022/03/06 05:54:31;;;;;;;17.33;14.98;;;-0.50;99.90;;;;;;4979674;28;20090;-84
2022/03/06 05:56:57;;;;;;;21.75;18.13;;;-0.50;99.90;;;;;;4979902;28;20042;-84
2022/03/06 05:59:23;;;;;;;19.05;16.75;;;-0.50;99.90;;;;;;4980210;28;20552;-84
2022/03/06 06:01:49;;;;;;;20.65;15.98;;;-0.50;99.90;;;;;;4995893;28;20061;-84
2022/03/06 06:04:15;;;;;;;16.23;12.48;;;-0.60;99.90;;;;;;4995922;28;20046;-84
2022/03/06 06:06:41;;;;;;;13.95;9.15;;;0.10;99.90;;;;;;5011349;28;20042;-84
2022/03/06 06:09:07;;;;;;;15.55;11.88;;;-0.60;99.90;;;;;;4979952;28;20045;-84
2022/03/06 06:11:33;;;;;;;17.20;13.13;;;-0.60;99.90;;;;;;4963527;28;20552;-84
2022/03/06 06:13:58;;;;;;;19.98;15.73;;;-0.20;99.90;;;;;;5012229;28;20038;-84
2022/03/06 06:16:24;;;;;;;17.77;14.98;;;-0.60;99.90;;;;;;4963013;28;20041;-84
2022/03/06 06:18:50;;;;;;;18.98;16.25;;;-0.60;99.90;;;;;;4979675;28;20045;-84
2022/03/06 06:21:18;;;;;;;16.27;13.30;;;-0.50;99.90;;;;;;4995137;28;20496;-84
2022/03/06 06:23:45;;;;;;;12.55;7.85;;;-0.50;99.90;;;;;;4995586;28;20045;-84
2022/03/06 06:26:11;;;;;;;15.02;9.55;;;-0.10;99.90;;;;;;5028435;28;20042;-84
2022/03/06 06:28:37;;;;;;;13.70;8.82;;;-0.40;99.90;;;;;;5028449;28;20037;-84
2022/03/06 06:31:04;;;;;;;12.40;9.20;;;-0.40;99.90;;;;;;4995630;28;20045;-84
2022/03/06 06:33:29;;;;;;;12.93;9.13;;;-0.40;99.90;;;;;;5028334;28;20037;-84
2022/03/06 06:35:55;;;;;;;11.57;7.90;;;-0.10;99.90;;;;;;4979396;28;20124;-84
2022/03/06 06:38:21;;;;;;;11.77;7.18;;;-0.30;99.90;;;;;;4978457;28;20497;-84
2022/03/06 06:40:48;;;;;;;9.85;6.28;;;-0.30;99.90;;;;;;5028471;28;20068;-84
2022/03/06 06:43:14;;;;;;;11.30;6.15;;;-0.20;99.90;;;;;;5028217;28;20045;-84
2022/03/06 06:45:40;;;;;;;11.15;6.20;;;-0.30;99.90;;;;;;4995461;28;20046;-84
2022/03/06 06:48:06;;;;;;;9.95;6.00;;;-0.20;99.90;;;;;;4979364;28;20042;-84
2022/03/06 06:50:33;;;;;;;11.48;6.00;;;-0.20;99.90;;;;;;4995488;28;20034;-84
2022/03/06 06:52:58;;;;;;;11.52;5.90;;;0.70;99.90;;;;;;4980166;28;20038;-84
2022/03/06 06:55:24;;;;;;;12.00;6.13;;;0.20;99.90;;;;;;5000818;28;20042;-84
2022/03/06 06:57:50;;;;;;;10.02;5.85;;;0.00;99.90;;;;;;5010774;28;20037;-84
2022/03/06 07:00:16;;;;;;;35.17;21.42;;;0.00;99.90;;;;;;5007894;28;20041;-84
2022/03/06 07:02:42;;;;;;;97.47;46.90;;;0.00;99.90;;;;;;4988611;28;20568;-84
2022/03/06 07:05:09;;;;;;;223.55;99.32;;;0.00;99.90;;;;;;5005524;28;20143;-84
2022/03/06 07:07:35;;;;;;;18.42;13.43;;;0.90;99.90;;;;;;4979573;28;20041;-84
2022/03/06 07:10:05;;;;;;;14.10;8.43;;;0.10;99.90;;;;;;4999047;28;20037;-84
2022/03/06 07:12:30;;;;;;;11.52;6.97;;;0.20;99.90;;;;;;5014859;28;20096;-84
2022/03/06 07:14:56;;;;;;;8.65;5.43;;;0.20;99.90;;;;;;5015003;28;20045;-84
2022/03/06 07:17:22;;;;;;;9.95;6.15;;;0.80;99.90;;;;;;5006092;28;20555;-84
2022/03/06 07:19:48;;;;;;;11.45;6.00;;;0.50;99.90;;;;;;4975781;28;20125;-84
2022/03/06 07:22:15;;;;;;;10.88;6.03;;;1.20;99.90;;;;;;4975312;28;20039;-84
2022/03/06 07:24:41;;;;;;;10.32;6.00;;;0.40;99.90;;;;;;4992148;28;20042;-84
2022/03/06 07:27:07;;;;;;;10.07;6.70;;;0.50;99.90;;;;;;4992334;28;20420;-85
2022/03/06 07:29:32;;;;;;;12.98;7.45;;;0.50;99.90;;;;;;4994092;28;20042;-84
2022/03/06 07:31:58;;;;;;;13.35;10.20;;;1.10;99.90;;;;;;4979485;28;20043;-84
2022/03/06 07:34:24;;;;;;;17.77;10.95;;;1.20;99.90;;;;;;4979208;28;20046;-84
2022/03/06 07:36:49;;;;;;;11.07;7.80;;;0.60;99.90;;;;;;4978247;28;20072;-84
2022/03/06 07:39:15;;;;;;;12.68;8.27;;;1.10;99.90;;;;;;4995415;28;20053;-84
2022/03/06 07:41:41;;;;;;;10.70;6.28;;;0.60;99.90;;;;;;4995399;28;20088;-84
2022/03/06 07:44:07;;;;;;;10.55;6.35;;;0.70;99.90;;;;;;4994144;28;20488;-84
2022/03/06 07:46:32;;;;;;;11.57;7.30;;;1.30;99.90;;;;;;4979793;28;20117;-84
2022/03/06 07:48:58;;;;;;;9.70;6.63;;;0.80;99.90;;;;;;5007874;28;20034;-84
2022/03/06 07:51:24;;;;;;;12.68;10.25;;;0.80;99.90;;;;;;4990882;28;20513;-84
2022/03/06 07:53:49;;;;;;;11.00;7.25;;;0.90;99.90;;;;;;4989108;28;20050;-84
2022/03/06 07:56:15;;;;;;;11.75;7.93;;;1.00;99.90;;;;;;5003999;28;20485;-84
2022/03/06 07:58:41;;;;;;;10.70;7.28;;;1.70;99.90;;;;;;4992346;28;20084;-84
2022/03/06 08:01:06;;;;;;;10.35;8.18;;;1.00;99.90;;;;;;4989490;28;20103;-84
2022/03/06 08:03:32;;;;;;;10.00;5.25;;;1.50;99.90;;;;;;4989675;28;20452;-84
2022/03/06 08:05:58;;;;;;;9.07;4.80;;;1.30;99.90;;;;;;4978685;28;20042;-84
2022/03/06 08:08:23;;;;;;;10.20;5.82;;;2.20;99.90;;;;;;4991097;28;20057;-84
2022/03/06 08:10:49;;;;;;;10.90;5.45;;;1.40;99.90;;;;;;4969927;28;20034;-84
2022/03/06 08:13:15;;;;;;;8.88;5.60;;;1.50;99.90;;;;;;4978453;28;20042;-84
2022/03/06 08:15:41;;;;;;;11.00;4.97;;;1.50;99.90;;;;;;5007825;28;20042;-84
2022/03/06 08:18:06;;;;;;;10.55;5.50;;;1.60;99.90;;;;;;4979460;28;20576;-84
2022/03/06 08:20:32;;;;;;;11.80;8.70;;;1.70;99.90;;;;;;4975522;28;20073;-84
2022/03/06 08:22:58;;;;;;;11.90;8.00;;;1.80;99.90;;;;;;4993632;28;20117;-84
2022/03/06 08:25:24;;;;;;;12.63;10.13;;;2.70;99.90;;;;;;4977666;28;20408;-84
2022/03/06 08:27:49;;;;;;;10.82;4.45;;;1.90;99.90;;;;;;4992875;28;20057;-84
2022/03/06 08:30:16;;;;;;;13.75;9.50;;;2.40;99.90;;;;;;4995573;28;20065;-84
2022/03/06 08:32:41;;;;;;;9.57;5.40;;;1.90;99.90;;;;;;4994325;28;20038;-84
2022/03/06 08:35:08;;;;;;;9.10;5.28;;;2.00;99.90;;;;;;4997199;28;20045;-84
2022/03/06 08:37:34;;;;;;;11.07;6.55;;;2.10;99.90;;;;;;5009465;28;20046;-84
2022/03/06 08:40:00;;;;;;;10.10;6.47;;;2.20;99.90;;;;;;5025018;28;20050;-84
2022/03/06 08:42:25;;;;;;;6.10;3.50;;;2.40;99.90;;;;;;5003624;28;20035;-84
2022/03/06 08:44:51;;;;;;;7.43;4.10;;;2.40;99.90;;;;;;4996747;28;20124;-84
2022/03/06 08:47:17;;;;;;;7.07;3.55;;;2.50;99.90;;;;;;4993611;28;20066;-84
2022/03/06 08:49:43;;;;;;;7.15;3.90;;;2.60;99.90;;;;;;5009290;28;20045;-84
2022/03/06 08:52:10;;;;;;;7.53;3.28;;;2.60;99.90;;;;;;4995805;28;20034;-84
2022/03/06 08:54:36;;;;;;;6.53;3.28;;;3.50;99.90;;;;;;4976062;28;20064;-84
2022/03/06 08:57:03;;;;;;;6.53;3.10;;;2.90;99.90;;;;;;4979613;28;20121;-84
2022/03/06 08:59:28;;;;;;;6.93;3.40;;;3.00;99.90;;;;;;5010368;28;20087;-84
2022/03/06 09:01:55;;;;;;;7.53;3.28;;;2.90;98.20;;;;;;4994205;28;20038;-84
2022/03/06 09:04:25;;;;;;;6.13;2.75;;;3.10;99.20;;;;;;4972262;28;20038;-84
2022/03/06 09:06:51;;;;;;;6.50;3.55;;;3.20;98.20;;;;;;4986096;28;20044;-84
2022/03/06 09:09:17;;;;;;;6.70;3.35;;;3.30;98.60;;;;;;5002486;28;20041;-84
2022/03/06 09:11:45;;;;;;;5.53;3.17;;;3.50;99.90;;;;;;4988955;28;20104;-84
2022/03/06 09:14:11;;;;;;;6.38;3.20;;;3.50;95.60;;;;;;4999172;28;20030;-84
2022/03/06 09:16:37;;;;;;;6.32;3.67;;;3.60;95.50;;;;;;4988896;28;20044;-84
2022/03/06 09:19:03;;;;;;;7.70;3.05;;;3.80;97.90;;;;;;4990139;28;20417;-84
2022/03/06 09:21:29;;;;;;;7.57;3.45;;;4.00;95.80;;;;;;5005542;28;20401;-84
2022/03/06 09:23:55;;;;;;;5.63;3.10;;;3.80;92.60;;;;;;4993690;28;20029;-84
2022/03/06 09:26:21;;;;;;;7.15;3.50;;;3.80;92.40;;;;;;4985053;28;20030;-84
2022/03/06 09:28:47;;;;;;;6.80;3.42;;;3.70;91.40;;;;;;4990798;28;20089;-84
2022/03/06 09:31:13;;;;;;;7.32;3.55;;;3.80;92.30;;;;;;4993256;28;20559;-84
2022/03/06 09:33:38;;;;;;;7.85;3.30;;;4.30;90.50;;;;;;5002738;28;20121;-84
2022/03/06 09:36:04;;;;;;;7.00;3.20;;;4.10;89.50;;;;;;4996687;28;20042;-84
2022/03/06 09:38:30;;;;;;;5.72;3.20;;;4.10;87.50;;;;;;5028228;28;20051;-84
2022/03/06 09:41:01;;;;;;;7.20;3.35;;;4.20;84.90;;;;;;4996398;28;20563;-84
2022/03/06 09:43:28;;;;;;;5.45;2.78;;;4.50;90.10;;;;;;5012507;28;20085;-84
2022/03/06 09:46:02;;;;;;;5.88;2.90;;;4.90;85.10;;;;;;4996406;28;20038;-84
2022/03/06 09:48:30;;;;;;;7.47;4.10;;;5.00;77.30;;;;;;5029024;28;20037;-84
2022/03/06 09:50:56;;;;;;;6.53;3.50;;;4.80;80.00;;;;;;4995865;28;20120;-84
2022/03/06 09:53:22;;;;;;;5.38;2.90;;;4.90;80.90;;;;;;5027680;28;20120;-84
2022/03/06 09:55:48;;;;;;;7.40;3.35;;;5.00;79.10;;;;;;5012480;28;20054;-84
2022/03/06 09:58:14;;;;;;;7.78;3.40;;;5.00;76.10;;;;;;5029077;28;20477;-84
2022/03/06 10:00:40;;;;;;;6.35;3.38;;;5.20;79.30;;;;;;4993962;28;20053;-84
2022/03/06 10:03:06;;;;;;;6.70;3.30;;;5.10;77.30;;;;;;4979984;28;20128;-84
2022/03/06 10:05:35;;;;;;;6.35;3.30;;;5.10;78.90;;;;;;5012119;28;20133;-84
2022/03/06 10:08:22;;;;;;;6.85;3.30;;;5.00;76.20;;;;;;4985810;28;20034;-84
2022/03/06 10:10:51;;;;;;;6.80;3.40;;;5.00;76.20;;;;;;4995905;28;20129;-84
2022/03/06 10:13:20;;;;;;;6.93;3.65;;;4.90;78.30;;;;;;5012037;28;20097;-84
2022/03/06 10:16:18;;;;;;;7.10;3.20;;;4.90;73.60;;;;;;4996046;28;20056;-84
2022/03/06 10:18:55;;;;;;;6.22;3.30;;;5.10;77.70;;;;;;5012520;28;20536;-84
2022/03/06 10:21:32;;;;;;;6.65;3.28;;;5.20;74.10;;;;;;5011535;28;20379;-84
2022/03/06 10:24:06;;;;;;;6.93;3.15;;;5.50;73.30;;;;;;5010854;28;20034;-84
2022/03/06 10:26:35;;;;;;;5.90;3.17;;;5.50;73.40;;;;;;5008561;28;20049;-84
2022/03/06 10:29:11;;;;;;;8.25;3.83;;;5.70;70.40;;;;;;5009884;28;20034;-84
2022/03/06 10:31:51;;;;;;;7.00;3.13;;;5.50;71.90;;;;;;4995496;28;20042;-84
2022/03/06 10:34:18;;;;;;;6.57;3.00;;;5.30;68.90;;;;;;5028081;28;20037;-84
2022/03/06 10:36:46;;;;;;;6.07;2.95;;;5.40;66.10;;;;;;5011060;28;20073;-84
2022/03/06 10:39:20;;;;;;;6.43;2.70;;;5.20;67.40;;;;;;5012176;28;20486;-84
2022/03/06 10:41:51;;;;;;;6.18;2.90;;;5.50;68.10;;;;;;5028142;28;20045;-84
2022/03/06 10:44:19;;;;;;;6.10;2.90;;;5.20;67.30;;;;;;5028332;28;20042;-84
2022/03/06 10:47:03;;;;;;;5.53;3.08;;;5.20;70.00;;;;;;5028147;28;20129;-84
2022/03/06 10:49:30;;;;;;;6.43;3.05;;;5.40;69.60;;;;;;5028468;28;20041;-84
2022/03/06 10:51:56;;;;;;;5.90;2.60;;;5.20;69.30;;;;;;4994675;28;20536;-84
2022/03/06 10:54:21;;;;;;;6.63;2.60;;;5.40;68.70;;;;;;4995389;28;20173;-84
2022/03/06 10:56:51;;;;;;;5.78;2.67;;;5.50;68.90;;;;;;4979107;28;20125;-84
2022/03/06 10:59:24;;;;;;;6.13;2.67;;;6.00;69.20;;;;;;4991992;28;20080;-84
2022/03/06 11:01:50;;;;;;;6.82;2.72;;;5.50;67.70;;;;;;4997571;28;20073;-84
2022/03/06 11:04:20;;;;;;;7.03;2.70;;;5.90;69.00;;;;;;4995796;28;20580;-84
2022/03/06 11:06:47;;;;;;;6.93;2.75;;;5.70;69.30;;;;;;4984218;28;20049;-84
2022/03/06 11:09:18;;;;;;;6.03;2.40;;;5.60;64.10;;;;;;5009893;28;20497;-84
2022/03/06 11:11:46;;;;;;;6.35;2.90;;;5.80;66.50;;;;;;5006684;28;20049;-84
2022/03/06 11:14:12;;;;;;;6.53;2.65;;;5.80;66.00;;;;;;5009552;28;20038;-84
2022/03/06 11:16:40;;;;;;;6.25;2.67;;;5.80;66.30;;;;;;4992969;28;20034;-84
2022/03/06 11:19:07;;;;;;;6.90;2.50;;;5.50;64.40;;;;;;5009107;28;20069;-84
2022/03/06 11:21:39;;;;;;;5.95;2.60;;;5.60;66.00;;;;;;5010972;28;20050;-84
2022/03/06 11:24:16;;;;;;;6.70;2.30;;;5.80;65.60;;;;;;4995970;28;20039;-84
2022/03/06 11:27:01;;;;;;;6.28;2.92;;;5.80;66.40;;;;;;4995816;28;20093;-84
2022/03/06 11:30:04;;;;;;;4.97;2.42;;;5.80;64.20;;;;;;4979517;28;20038;-84
2022/03/06 11:32:33;;;;;;;6.45;2.65;;;6.00;65.80;;;;;;4995464;28;20042;-84
2022/03/06 11:35:16;;;;;;;7.63;2.80;;;6.00;67.00;;;;;;4963771;28;20521;-84
2022/03/06 11:37:56;;;;;;;6.03;2.63;;;5.80;64.60;;;;;;4993681;28;20065;-84
2022/03/06 11:40:49;;;;;;;6.95;2.53;;;6.00;65.80;;;;;;5011600;28;20042;-84
2022/03/06 11:43:38;;;;;;;5.72;2.53;;;6.00;65.90;;;;;;5010363;28;20525;-84
2022/03/06 11:46:21;;;;;;;6.80;2.58;;;6.10;67.70;;;;;;4995237;28;20508;-84
2022/03/06 11:48:47;;;;;;;6.85;2.63;;;6.10;63.30;;;;;;5008850;28;20030;-84
2022/03/06 11:51:30;;;;;;;6.82;2.80;;;6.10;64.10;;;;;;5023400;28;20038;-84
2022/03/06 11:54:06;;;;;;;5.32;2.38;;;6.20;64.00;;;;;;4991297;28;20583;-84
2022/03/06 11:56:32;;;;;;;6.95;2.95;;;6.40;66.30;;;;;;4992841;28;20046;-84
2022/03/06 11:59:17;;;;;;;4.70;2.33;;;6.30;64.20;;;;;;5027275;28;20099;-84
2022/03/06 12:01:57;;;;;;;7.80;2.80;;;6.40;64.90;;;;;;4992377;28;20492;-84
2022/03/06 12:04:33;;;;;;;7.72;2.63;;;6.40;64.90;;;;;;5013353;28;20041;-84
2022/03/06 12:07:05;;;;;;;5.32;2.72;;;6.20;64.60;;;;;;5007222;28;20445;-84
2022/03/06 12:09:41;;;;;;;6.68;2.70;;;6.20;64.50;;;;;;5010295;28;20046;-84
2022/03/06 12:12:15;;;;;;;7.05;3.10;;;6.30;66.80;;;;;;5008308;28;20072;-84
2022/03/06 12:14:45;;;;;;;6.10;2.53;;;6.20;67.50;;;;;;4996965;28;20041;-84
2022/03/06 12:17:11;;;;;;;6.65;2.88;;;6.20;66.90;;;;;;5022800;28;20096;-84
2022/03/06 12:19:43;;;;;;;6.18;2.78;;;6.20;66.20;;;;;;4978269;28;20042;-84
2022/03/06 12:22:11;;;;;;;7.15;2.90;;;6.10;67.30;;;;;;4993638;28;20097;-84
2022/03/06 12:24:37;;;;;;;6.95;3.17;;;5.90;68.80;;;;;;4978110;28;20096;-84
2022/03/06 12:27:17;;;;;;;6.97;2.88;;;6.00;69.20;;;;;;4990161;28;20092;-84
2022/03/06 12:29:46;;;;;;;6.30;2.90;;;6.20;68.60;;;;;;5013326;28;20562;-84
2022/03/06 12:32:27;;;;;;;7.80;3.35;;;6.30;67.40;;;;;;4997770;28;20100;-84
2022/03/06 12:35:07;;;;;;;6.13;2.72;;;6.10;66.30;;;;;;4997598;28;20050;-84
2022/03/06 12:38:01;;;;;;;6.65;2.83;;;6.20;66.30;;;;;;4981958;28;20045;-84
2022/03/06 12:40:31;;;;;;;5.00;2.30;;;6.10;66.10;;;;;;4997679;28;20509;-84
2022/03/06 12:43:04;;;;;;;6.47;2.90;;;6.20;66.50;;;;;;4997623;28;20049;-84
2022/03/06 12:45:30;;;;;;;6.32;3.13;;;6.20;65.30;;;;;;5013671;28;20513;-84
2022/03/06 12:47:56;;;;;;;6.78;3.05;;;6.20;66.30;;;;;;5013525;28;20121;-85